createdAt,value
2022-08-10T00:01:20.428Z,19.62
2022-08-10T00:03:48.805Z,19.64
2022-08-10T00:06:22.214Z,19.64
2022-08-10T00:09:00.617Z,19.64
2022-08-10T00:11:35.179Z,19.64
2022-08-10T00:14:07.206Z,19.60
2022-08-10T00:16:42.154Z,19.58
2022-08-10T00:19:26.345Z,19.60
2022-08-10T00:22:21.064Z,19.61
2022-08-10T00:25:10.893Z,19.62
2022-08-10T00:27:58.967Z,19.62
2022-08-10T00:30:37.493Z,19.60
2022-08-10T00:33:13.227Z,19.58
2022-08-10T00:36:04.319Z,19.57
2022-08-10T00:38:37.229Z,19.57
2022-08-10T00:41:10.417Z,19.59
2022-08-10T00:43:54.956Z,19.59
2022-08-10T00:46:39.931Z,19.59
2022-08-10T00:49:15.184Z,19.58
2022-08-10T00:52:17.759Z,19.59
2022-08-10T00:54:51.765Z,19.60
2022-08-10T00:57:23.072Z,19.63
2022-08-10T01:00:32.448Z,19.63
2022-08-10T01:04:57.713Z,19.62
2022-08-10T01:06:31.475Z,19.60
2022-08-10T01:09:57.201Z,19.58
2022-08-10T01:12:41.595Z,19.57
2022-08-10T01:15:54.633Z,19.57
2022-08-10T01:18:44.875Z,19.57
2022-08-10T01:21:54.006Z,19.57
2022-08-10T01:24:57.992Z,19.56
2022-08-10T01:27:48.655Z,19.55
2022-08-10T01:30:45.404Z,19.55
2022-08-10T01:33:31.950Z,19.54
2022-08-10T01:36:42.129Z,19.54
2022-08-10T01:39:15.847Z,19.53
2022-08-10T01:41:50.450Z,19.54
2022-08-10T01:44:54.103Z,19.56
2022-08-10T01:47:52.804Z,19.59
2022-08-10T01:50:59.585Z,19.63
2022-08-10T01:53:51.602Z,19.65
2022-08-10T01:56:25.891Z,19.64
2022-08-10T01:59:01.076Z,19.62
2022-08-10T02:01:47.753Z,19.61
2022-08-10T02:04:24.894Z,19.58
2022-08-10T02:07:58.443Z,19.53
2022-08-10T02:10:40.184Z,19.48
2022-08-10T02:13:23.549Z,19.45
2022-08-10T02:16:04.496Z,19.43
2022-08-10T02:18:41.400Z,19.41
2022-08-10T02:21:12.136Z,19.41
2022-08-10T02:23:43.908Z,19.38
2022-08-10T02:26:43.206Z,19.31
2022-08-10T02:29:30.619Z,19.24
2022-08-10T02:31:58.501Z,19.17
2022-08-10T02:34:58.211Z,19.13
2022-08-10T02:37:40.917Z,19.10
2022-08-10T02:42:17.961Z,19.09
2022-08-10T02:45:18.931Z,19.07
2022-08-10T02:46:52.216Z,19.04
2022-08-10T02:49:37.268Z,19.03
2022-08-10T02:52:19.246Z,19.05
2022-08-10T02:55:20.253Z,19.03
2022-08-10T02:58:17.299Z,19.00
2022-08-10T03:01:15.147Z,18.96
2022-08-10T03:04:19.651Z,18.92
2022-08-10T03:07:42.926Z,18.88
2022-08-10T03:10:34.953Z,18.81
2022-08-10T03:13:13.440Z,18.76
2022-08-10T03:15:45.786Z,18.72
2022-08-10T03:18:19.037Z,18.67
2022-08-10T03:21:10.003Z,18.62
2022-08-10T03:23:49.474Z,18.56
2022-08-10T03:26:38.070Z,18.52
2022-08-10T03:29:20.591Z,18.47
2022-08-10T03:32:12.325Z,18.43
2022-08-10T03:35:04.144Z,18.39
2022-08-10T03:37:35.894Z,18.37
2022-08-10T03:40:46.032Z,18.37
2022-08-10T03:43:28.236Z,18.33
2022-08-10T03:46:11.718Z,18.32
2022-08-10T03:48:49.776Z,18.31
2022-08-10T03:51:29.385Z,18.31
2022-08-10T03:54:04.749Z,18.32
2022-08-10T03:56:40.866Z,18.32
2022-08-10T03:59:21.385Z,18.33
2022-08-10T04:02:44.344Z,18.35
2022-08-10T04:04:50.364Z,18.37
2022-08-10T04:07:26.116Z,18.37
2022-08-10T04:10:03.740Z,18.38
2022-08-10T04:12:41.682Z,18.39
2022-08-10T04:15:11.660Z,18.39
2022-08-10T04:18:01.144Z,18.40
2022-08-10T04:20:36.275Z,18.40
2022-08-10T04:23:17.467Z,18.42
2022-08-10T04:25:47.107Z,18.43
2022-08-10T04:28:31.720Z,18.44
2022-08-10T04:31:08.983Z,18.46
2022-08-10T04:34:08.610Z,18.46
2022-08-10T04:36:47.153Z,18.47
2022-08-10T04:39:26.874Z,18.46
2022-08-10T04:41:54.913Z,18.47
2022-08-10T04:44:23.628Z,18.49
2022-08-10T04:46:55.628Z,18.51
2022-08-10T04:49:55.424Z,18.51
2022-08-10T04:52:25.471Z,18.53
2022-08-10T04:55:05.323Z,18.53
2022-08-10T04:57:44.478Z,18.54
2022-08-10T05:00:33.210Z,18.53
2022-08-10T05:03:12.088Z,18.52
2022-08-10T05:05:48.633Z,18.52
2022-08-10T05:08:39.399Z,18.52
2022-08-10T05:11:24.070Z,18.53
2022-08-10T05:13:53.713Z,18.53
2022-08-10T05:16:31.544Z,18.54
2022-08-10T05:19:06.454Z,18.56
2022-08-10T05:22:04.404Z,18.57
2022-08-10T05:24:41.544Z,18.57
2022-08-10T05:27:19.705Z,18.55
2022-08-10T05:30:02.235Z,18.55
2022-08-10T05:32:56.189Z,18.53
2022-08-10T05:35:56.899Z,18.54
2022-08-10T05:38:34.403Z,18.55
2022-08-10T05:41:33.501Z,18.57
2022-08-10T05:44:13.684Z,18.60
2022-08-10T05:46:54.865Z,18.63
2022-08-10T05:50:07.346Z,18.67
2022-08-10T05:52:47.024Z,18.73
2022-08-10T05:55:30.616Z,18.80
2022-08-10T05:59:01.547Z,18.88
2022-08-10T06:02:31.113Z,19.00
2022-08-10T06:05:02.500Z,19.13
2022-08-10T06:07:43.738Z,19.25
2022-08-10T06:12:21.865Z,19.35
2022-08-10T06:14:16.115Z,19.44
2022-08-10T06:16:52.978Z,19.55
2022-08-10T06:19:51.512Z,19.64
2022-08-10T06:22:28.116Z,19.70
2022-08-10T06:26:10.503Z,19.74
2022-08-10T06:28:40.218Z,19.78
2022-08-10T06:31:14.649Z,19.79
2022-08-10T06:34:02.893Z,19.81
2022-08-10T06:36:50.936Z,19.85
2022-08-10T06:39:35.690Z,19.91
2022-08-10T06:42:46.323Z,20.00
2022-08-10T06:45:35.327Z,20.11
2022-08-10T06:48:41.658Z,20.20
2022-08-10T06:51:45.825Z,20.28
2022-08-10T06:54:36.538Z,20.37
2022-08-10T06:57:31.434Z,20.47
2022-08-10T07:00:03.099Z,20.58
2022-08-10T07:03:09.800Z,20.66
2022-08-10T07:05:51.060Z,20.78
2022-08-10T07:08:27.021Z,20.90
2022-08-10T07:10:55.609Z,20.99
2022-08-10T07:14:15.858Z,21.08
2022-08-10T07:16:20.925Z,21.16
2022-08-10T07:18:49.180Z,21.25
2022-08-10T07:21:32.281Z,21.32
2022-08-10T07:24:08.758Z,21.41
2022-08-10T07:26:49.339Z,21.48
2022-08-10T07:29:53.568Z,21.52
2022-08-10T07:32:27.059Z,21.55
2022-08-10T07:34:56.957Z,21.56
2022-08-10T07:37:36.352Z,21.56
2022-08-10T07:40:18.371Z,21.50
2022-08-10T07:43:02.590Z,21.45
2022-08-10T07:45:38.809Z,21.39
2022-08-10T07:48:36.180Z,21.29
2022-08-10T07:51:39.062Z,21.12
2022-08-10T07:57:51.680Z,20.83
2022-08-10T08:00:23.335Z,20.71
2022-08-10T08:03:34.005Z,20.65
2022-08-10T08:06:14.276Z,20.60
2022-08-10T08:08:52.586Z,20.60
2022-08-10T08:11:26.245Z,20.67
2022-08-10T08:14:01.469Z,20.68
2022-08-10T08:17:03.191Z,20.62
2022-08-10T08:19:37.959Z,20.55
2022-08-10T08:24:08.726Z,20.50
2022-08-10T08:25:20.638Z,20.49
2022-08-10T08:27:55.498Z,20.47
2022-08-10T08:30:50.463Z,20.46
2022-08-10T08:33:20.018Z,20.47
2022-08-10T08:36:07.364Z,20.43
2022-08-10T08:45:27.336Z,20.35
2022-08-10T08:48:23.165Z,20.36
2022-08-10T08:52:07.744Z,20.35
2022-08-10T08:54:58.905Z,20.32
2022-08-10T08:57:50.425Z,20.34
2022-08-10T09:00:39.144Z,20.38
2022-08-10T09:03:46.343Z,20.44
2022-08-10T09:08:01.187Z,20.52
2022-08-10T09:10:24.124Z,20.55
2022-08-10T09:13:33.808Z,20.58
2022-08-10T09:16:29.212Z,20.59
2022-08-10T09:19:35.641Z,20.56
2022-08-10T09:22:28.235Z,20.51
2022-08-10T09:25:35.152Z,20.53
2022-08-10T09:28:17.679Z,20.53
2022-08-10T09:31:32.092Z,20.55
2022-08-10T09:36:29.967Z,20.59
2022-08-10T09:38:09.281Z,20.61
2022-08-10T09:41:21.203Z,20.63
2022-08-10T09:44:57.119Z,20.62
2022-08-10T09:48:05.926Z,20.64
2022-08-10T09:54:55.296Z,20.68
2022-08-10T09:57:46.582Z,20.65
2022-08-10T10:01:05.402Z,20.65
2022-08-10T10:04:37.331Z,20.65
2022-08-10T10:07:43.601Z,20.65
2022-08-10T10:10:25.111Z,20.69
2022-08-10T10:13:50.618Z,20.70
2022-08-10T10:16:56.936Z,20.73
2022-08-10T10:20:32.490Z,20.78
2022-08-10T10:23:36.957Z,20.74
2022-08-10T10:26:41.343Z,20.64
2022-08-10T10:29:57.152Z,20.47
2022-08-10T10:32:57.652Z,20.24
2022-08-10T10:35:35.629Z,20.12
2022-08-10T10:42:42.245Z,20.15
2022-08-10T11:06:47.505Z,20.62
2022-08-10T11:10:32.779Z,20.72
2022-08-10T11:35:11.455Z,21.57
2022-08-10T11:38:30.390Z,21.80
2022-08-10T11:42:10.292Z,22.01
2022-08-10T11:45:06.178Z,22.25
2022-08-10T11:48:53.180Z,22.46
2022-08-10T11:51:49.883Z,22.74
2022-08-10T11:55:13.292Z,23.21
2022-08-10T11:57:55.894Z,23.95
2022-08-10T12:00:55.109Z,24.46
2022-08-10T12:03:25.465Z,24.72
2022-08-10T12:10:16.047Z,25.00
2022-08-10T12:13:10.005Z,25.22
2022-08-10T12:16:13.225Z,25.34
2022-08-10T12:22:23.122Z,25.52
2022-08-10T12:25:56.579Z,25.62
2022-08-10T12:29:15.190Z,25.88
2022-08-10T12:32:10.143Z,26.23
2022-08-10T12:35:22.706Z,26.56
2022-08-10T12:38:41.640Z,26.98
2022-08-10T12:45:45.787Z,27.11
2022-08-10T12:49:03.674Z,27.13
2022-08-10T12:51:59.294Z,27.21
2022-08-10T13:02:53.607Z,27.25
2022-08-10T13:06:01.792Z,27.28
2022-08-10T13:08:51.291Z,27.34
2022-08-10T13:12:35.974Z,27.47
2022-08-10T13:14:49.562Z,27.53
2022-08-10T13:17:32.449Z,27.60
2022-08-10T13:21:20.046Z,27.70
2022-08-10T13:24:55.565Z,27.73
2022-08-10T13:29:01.971Z,27.63
2022-08-10T13:32:09.976Z,27.51
2022-08-10T13:34:46.866Z,27.50
2022-08-10T13:37:30.114Z,27.42
2022-08-10T13:40:13.338Z,27.34
2022-08-10T13:45:59.615Z,27.06
2022-08-10T13:48:48.984Z,26.87
2022-08-10T13:52:31.718Z,26.58
2022-08-10T13:55:53.762Z,26.26
2022-08-10T13:58:57.733Z,26.03
2022-08-10T14:01:45.570Z,25.84
2022-08-10T14:04:22.374Z,25.70
2022-08-10T14:07:19.879Z,25.61
2022-08-10T14:10:20.247Z,25.55
2022-08-10T14:13:22.077Z,25.48
2022-08-10T14:16:14.559Z,25.36
2022-08-10T14:19:04.292Z,25.30
2022-08-10T14:22:08.132Z,25.19
2022-08-10T14:24:49.033Z,25.08
2022-08-10T14:27:24.680Z,24.98
2022-08-10T14:30:36.439Z,24.84
2022-08-10T14:33:07.080Z,24.73
2022-08-10T14:36:22.375Z,24.67
2022-08-10T14:39:04.348Z,24.55
2022-08-10T14:42:01.083Z,24.47
2022-08-10T14:44:31.450Z,24.41
2022-08-10T14:47:52.653Z,24.36
2022-08-10T14:54:05.703Z,24.26
2022-08-10T14:56:45.203Z,24.24
2022-08-10T15:02:58.247Z,24.18
2022-08-10T15:05:39.974Z,24.15
2022-08-10T15:08:27.668Z,24.09
2022-08-10T15:11:01.087Z,24.06
2022-08-10T15:14:12.449Z,24.07
2022-08-10T15:16:48.124Z,24.04
2022-08-10T15:20:03.459Z,24.04
2022-08-10T15:22:49.941Z,24.08
2022-08-10T15:29:23.427Z,24.01
2022-08-10T15:32:17.601Z,23.98
2022-08-10T15:35:21.457Z,23.90
2022-08-10T15:38:05.646Z,23.83
2022-08-10T15:47:45.886Z,23.68
2022-08-10T15:50:32.977Z,23.62
2022-08-10T15:53:21.362Z,23.60
2022-08-10T15:56:09.381Z,23.56
2022-08-10T15:58:58.008Z,23.55
2022-08-10T16:02:14.205Z,23.49
2022-08-10T16:06:00.111Z,23.41
2022-08-10T16:10:10.589Z,23.30
2022-08-10T16:12:32.066Z,23.22
2022-08-10T16:15:27.591Z,23.13
2022-08-10T16:18:19.409Z,23.04
2022-08-10T16:21:18.236Z,22.93
2022-08-10T16:24:14.953Z,22.82
2022-08-10T16:26:52.661Z,22.75
2022-08-10T16:29:55.538Z,22.70
2022-08-10T16:32:31.704Z,22.64
2022-08-10T16:35:21.872Z,22.59
2022-08-10T16:37:57.702Z,22.56
2022-08-10T16:40:40.010Z,22.52
2022-08-10T16:43:28.068Z,22.48
2022-08-10T16:46:25.870Z,22.44
2022-08-10T16:49:06.844Z,22.39
2022-08-10T16:51:52.151Z,22.34
2022-08-10T16:58:10.408Z,22.26
2022-08-10T17:00:50.301Z,22.25
2022-08-10T17:04:06.481Z,22.23
2022-08-10T17:10:50.359Z,22.16
2022-08-10T17:13:46.118Z,22.11
2022-08-10T17:16:44.745Z,22.07
2022-08-10T17:19:24.730Z,22.03
2022-08-10T17:22:12.955Z,22.00
2022-08-10T17:25:46.045Z,21.96
2022-08-10T17:28:34.585Z,21.91
2022-08-10T17:31:53.211Z,21.88
2022-08-10T17:34:35.104Z,21.84
2022-08-10T17:37:35.324Z,21.79
2022-08-10T17:40:21.362Z,21.76
2022-08-10T17:43:02.900Z,21.73
2022-08-10T17:45:48.507Z,21.71
2022-08-10T17:48:43.143Z,21.68
2022-08-10T17:51:30.554Z,21.65
2022-08-10T17:57:25.122Z,21.56
2022-08-10T18:00:15.276Z,21.52
2022-08-10T18:02:51.449Z,21.48
2022-08-10T18:05:26.147Z,21.42
2022-08-10T18:08:22.611Z,21.37
2022-08-10T18:10:58.305Z,21.31
2022-08-10T18:13:55.845Z,21.25
2022-08-10T18:16:41.802Z,21.18
2022-08-10T18:19:17.232Z,21.11
2022-08-10T18:21:49.387Z,21.05
2022-08-10T18:24:19.879Z,20.98
2022-08-10T18:26:53.500Z,20.90
2022-08-10T18:29:31.443Z,20.81
2022-08-10T18:31:59.976Z,20.70
2022-08-10T18:34:47.375Z,20.62
2022-08-10T18:37:29.128Z,20.56
2022-08-10T18:40:11.128Z,20.48
2022-08-10T18:44:06.642Z,20.41
2022-08-10T18:46:27.324Z,20.33
2022-08-10T18:49:16.016Z,20.30
2022-08-10T18:51:52.735Z,20.27
2022-08-10T18:54:44.776Z,20.27
2022-08-10T18:57:59.688Z,20.24
2022-08-10T19:00:56.195Z,20.16
2022-08-10T19:03:53.970Z,20.10
2022-08-10T19:07:08.628Z,20.04
2022-08-10T19:14:05.096Z,19.96
2022-08-10T19:17:20.299Z,19.91
2022-08-10T19:20:01.311Z,19.84
2022-08-10T19:23:05.086Z,19.80
2022-08-10T19:26:42.130Z,19.71
2022-08-10T19:30:09.983Z,19.60
2022-08-10T19:32:41.147Z,19.41
2022-08-10T19:36:03.328Z,19.24
2022-08-10T19:38:54.651Z,19.11
2022-08-10T19:41:46.402Z,18.97
2022-08-10T19:44:28.694Z,18.86
2022-08-10T19:47:09.379Z,18.74
2022-08-10T19:49:54.906Z,18.64
2022-08-10T19:52:47.135Z,18.56
2022-08-10T19:55:47.093Z,18.51
2022-08-10T19:58:38.177Z,18.48
2022-08-10T20:01:07.550Z,18.41
2022-08-10T20:03:57.458Z,18.38
2022-08-10T20:06:41.322Z,18.38
2022-08-10T20:09:42.801Z,18.37
2022-08-10T20:12:54.637Z,18.36
2022-08-10T20:15:42.204Z,18.35
2022-08-10T20:18:32.498Z,18.35
2022-08-10T20:21:27.114Z,18.35
2022-08-10T20:24:16.201Z,18.35
2022-08-10T20:26:50.324Z,18.35
2022-08-10T20:29:57.665Z,18.35
2022-08-10T20:33:20.365Z,18.33
2022-08-10T20:36:10.983Z,18.32
2022-08-10T20:39:01.383Z,18.33
2022-08-10T20:41:51.195Z,18.33
2022-08-10T20:44:52.589Z,18.32
2022-08-10T20:47:36.575Z,18.32
2022-08-10T20:50:40.263Z,18.32
2022-08-10T20:53:21.372Z,18.31
2022-08-10T20:56:34.289Z,18.31
2022-08-10T21:00:02.492Z,18.29
2022-08-10T21:02:47.810Z,18.28
2022-08-10T21:06:35.967Z,18.25
2022-08-10T21:09:35.741Z,18.21
2022-08-10T21:12:40.347Z,18.19
2022-08-10T21:15:41.663Z,18.19
2022-08-10T21:18:35.664Z,18.19
2022-08-10T21:21:41.820Z,18.22
2022-08-10T21:24:26.735Z,18.25
2022-08-10T21:27:36.054Z,18.27
2022-08-10T21:30:15.398Z,18.27
2022-08-10T21:32:59.817Z,18.28
2022-08-10T21:35:38.208Z,18.31
2022-08-10T21:38:36.370Z,18.32
2022-08-10T21:41:57.881Z,18.33
2022-08-10T21:48:57.072Z,18.31
2022-08-10T21:52:16.257Z,18.31
2022-08-10T21:55:16.588Z,18.28
2022-08-10T21:58:06.638Z,18.24
2022-08-10T22:01:01.490Z,18.19
2022-08-10T22:03:49.474Z,18.15
2022-08-10T22:06:52.487Z,18.11
2022-08-10T22:10:03.921Z,18.11
2022-08-10T22:13:06.314Z,18.17
2022-08-10T22:19:25.472Z,18.29
2022-08-10T22:22:41.836Z,18.24
2022-08-10T22:26:13.552Z,18.22
2022-08-10T22:29:11.677Z,18.17
2022-08-10T22:31:25.898Z,18.27
2022-08-10T22:31:57.217Z,18.13
2022-08-10T22:35:07.389Z,18.09
2022-08-10T22:38:10.924Z,18.05
2022-08-10T22:41:10.588Z,18.01
2022-08-10T22:44:04.498Z,17.96
2022-08-10T22:46:54.727Z,17.93
2022-08-10T22:49:23.569Z,17.88
2022-08-10T22:52:17.195Z,17.84
2022-08-10T22:55:34.657Z,17.76
2022-08-10T22:58:39.854Z,17.67
2022-08-10T23:02:08.991Z,17.60
2022-08-10T23:04:54.552Z,17.53
2022-08-10T23:07:31.019Z,17.50
2022-08-10T23:10:16.390Z,17.48
2022-08-10T23:13:00.305Z,17.47
2022-08-10T23:15:55.619Z,17.49
2022-08-10T23:18:56.572Z,17.50
2022-08-10T23:22:03.068Z,17.50
2022-08-10T23:24:53.378Z,17.52
2022-08-10T23:27:37.491Z,17.53
2022-08-10T23:30:19.181Z,17.53
2022-08-10T23:32:51.474Z,17.53
2022-08-10T23:36:31.882Z,17.53
2022-08-10T23:38:18.296Z,17.53
2022-08-10T23:40:53.628Z,17.52
2022-08-10T23:43:53.409Z,17.51
2022-08-10T23:46:42.192Z,17.51
2022-08-10T23:49:14.424Z,17.49
2022-08-10T23:51:55.964Z,17.48
2022-08-10T23:54:51.744Z,17.44
2022-08-10T23:57:30.763Z,17.42
